createdAt,value
2022-08-07T00:02:39.923Z,12.74
2022-08-07T00:05:30.438Z,12.37
2022-08-07T00:08:16.886Z,12.81
2022-08-07T00:11:06.411Z,12.66
2022-08-07T00:13:52.863Z,12.62
2022-08-07T00:16:41.544Z,12.48
2022-08-07T00:19:59.954Z,12.57
2022-08-07T00:22:35.785Z,12.33
2022-08-07T00:25:23.455Z,12.49
2022-08-07T00:28:13.107Z,12.30
2022-08-07T00:31:12.680Z,12.35
2022-08-07T00:34:03.283Z,12.24
2022-08-07T00:36:50.006Z,12.24
2022-08-07T00:39:36.885Z,12.14
2022-08-07T00:42:33.554Z,12.16
2022-08-07T00:45:23.054Z,11.93
2022-08-07T00:48:12.320Z,11.95
2022-08-07T00:51:00.997Z,11.97
2022-08-07T00:53:50.743Z,11.92
2022-08-07T00:56:41.977Z,11.89
2022-08-07T00:59:35.479Z,11.94
2022-08-07T01:02:28.288Z,11.84
2022-08-07T01:05:18.760Z,11.90
2022-08-07T01:08:06.241Z,11.92
2022-08-07T01:10:56.545Z,11.73
2022-08-07T01:13:46.746Z,11.83
2022-08-07T01:16:43.403Z,11.75
2022-08-07T01:19:38.329Z,11.85
2022-08-07T01:22:29.384Z,11.58
2022-08-07T01:25:54.058Z,11.64
2022-08-07T01:28:24.196Z,11.59
2022-08-07T01:31:15.439Z,11.50
2022-08-07T01:34:05.879Z,11.67
2022-08-07T01:36:57.859Z,11.46
2022-08-07T01:39:48.202Z,11.57
2022-08-07T01:42:58.653Z,11.47
2022-08-07T01:45:49.937Z,11.20
2022-08-07T01:48:47.596Z,11.42
2022-08-07T01:52:03.380Z,11.12
2022-08-07T01:54:53.938Z,11.44
2022-08-07T01:58:06.847Z,11.31
2022-08-07T02:01:09.430Z,11.19
2022-08-07T02:04:13.843Z,11.42
2022-08-07T02:07:08.284Z,11.16
2022-08-07T02:09:58.689Z,11.26
2022-08-07T02:12:50.063Z,11.09
2022-08-07T02:15:43.323Z,11.18
2022-08-07T02:18:33.192Z,11.00
2022-08-07T02:21:23.739Z,10.97
2022-08-07T02:24:13.406Z,11.09
2022-08-07T02:27:05.508Z,10.83
2022-08-07T02:29:55.008Z,11.09
2022-08-07T02:33:00.512Z,10.85
2022-08-07T02:36:29.619Z,10.80
2022-08-07T02:39:01.072Z,10.94
2022-08-07T02:41:54.227Z,10.92
2022-08-07T02:44:47.576Z,10.95
2022-08-07T02:47:48.908Z,10.76
2022-08-07T02:50:41.814Z,10.80
2022-08-07T02:53:38.589Z,10.89
2022-08-07T02:56:31.574Z,10.77
2022-08-07T02:59:24.124Z,10.64
2022-08-07T03:02:16.845Z,10.58
2022-08-07T03:05:06.647Z,10.58
2022-08-07T03:08:08.212Z,10.67
2022-08-07T03:10:59.592Z,10.69
2022-08-07T03:13:57.595Z,10.49
2022-08-07T03:16:50.192Z,10.48
2022-08-07T03:19:40.667Z,10.52
2022-08-07T03:22:30.586Z,10.43
2022-08-07T03:25:21.173Z,10.42
2022-08-07T03:28:37.455Z,10.50
2022-08-07T03:31:24.576Z,10.32
2022-08-07T03:34:18.272Z,10.36
2022-08-07T03:37:12.601Z,10.35
2022-08-07T03:40:15.829Z,10.25
2022-08-07T03:43:04.782Z,10.28
2022-08-07T03:46:03.788Z,10.55
2022-08-07T03:49:02.617Z,10.33
2022-08-07T03:51:56.072Z,10.48
2022-08-07T03:54:54.088Z,10.33
2022-08-07T03:58:33.676Z,10.21
2022-08-07T04:01:00.268Z,9.83
2022-08-07T04:03:55.097Z,10.32
2022-08-07T04:06:44.249Z,10.24
2022-08-07T04:09:44.860Z,10.44
2022-08-07T04:12:32.382Z,10.30
2022-08-07T04:15:23.967Z,10.23
2022-08-07T04:18:57.866Z,10.31
2022-08-07T04:21:22.960Z,10.31
2022-08-07T04:24:33.892Z,10.30
2022-08-07T04:27:25.651Z,10.42
2022-08-07T04:30:36.069Z,10.53
2022-08-07T04:33:37.756Z,10.35
2022-08-07T04:36:26.199Z,10.56
2022-08-07T04:39:13.615Z,10.17
2022-08-07T04:42:05.211Z,10.58
2022-08-07T04:44:54.622Z,10.73
2022-08-07T04:48:11.044Z,11.01
2022-08-07T04:51:09.756Z,10.86
2022-08-07T04:54:15.515Z,11.16
2022-08-07T04:58:15.551Z,11.27
2022-08-07T05:00:30.068Z,11.58
2022-08-07T05:03:49.914Z,11.92
2022-08-07T05:06:51.748Z,12.19
2022-08-07T05:10:04.839Z,13.18
2022-08-07T05:13:09.841Z,14.69
2022-08-07T05:16:14.367Z,16.16
2022-08-07T05:19:07.615Z,17.36
2022-08-07T05:22:01.898Z,18.33
2022-08-07T05:24:59.456Z,19.02
2022-08-07T05:28:16.167Z,19.60
2022-08-07T05:30:56.850Z,19.83
2022-08-07T05:34:01.347Z,20.10
2022-08-07T05:36:56.066Z,20.05
2022-08-07T05:40:05.690Z,19.81
2022-08-07T05:42:58.671Z,19.48
2022-08-07T05:45:48.402Z,18.79
2022-08-07T05:48:58.059Z,18.22
2022-08-07T05:51:47.197Z,17.95
2022-08-07T05:54:53.305Z,17.35
2022-08-07T05:57:44.926Z,17.00
2022-08-07T06:00:35.054Z,16.80
2022-08-07T06:03:25.044Z,16.69
2022-08-07T06:06:34.242Z,16.35
2022-08-07T06:10:03.162Z,16.16
2022-08-07T06:12:33.182Z,15.98
2022-08-07T06:15:22.047Z,16.17
2022-08-07T06:18:28.027Z,16.19
2022-08-07T06:22:16.274Z,16.34
2022-08-07T06:24:46.225Z,16.27
2022-08-07T06:28:00.731Z,16.37
2022-08-07T06:30:42.628Z,16.78
2022-08-07T06:33:36.658Z,16.72
2022-08-07T06:36:34.861Z,16.93
2022-08-07T06:40:13.449Z,16.80
2022-08-07T06:42:37.492Z,17.37
2022-08-07T06:45:44.283Z,17.39
2022-08-07T06:48:31.687Z,17.67
2022-08-07T06:51:31.169Z,18.14
2022-08-07T06:55:34.199Z,18.03
2022-08-07T06:57:43.653Z,18.34
2022-08-07T07:00:42.345Z,18.45
2022-08-07T07:03:48.988Z,18.61
2022-08-07T07:06:39.426Z,18.86
2022-08-07T07:09:50.850Z,19.09
2022-08-07T07:12:48.672Z,19.53
2022-08-07T07:15:40.399Z,19.49
2022-08-07T07:18:48.306Z,19.74
2022-08-07T07:22:04.633Z,19.62
2022-08-07T07:24:56.970Z,19.61
2022-08-07T07:28:07.569Z,19.90
2022-08-07T07:31:44.605Z,20.06
2022-08-07T07:34:36.840Z,20.07
2022-08-07T07:37:49.542Z,20.16
2022-08-07T07:40:38.301Z,20.23
2022-08-07T07:43:47.492Z,20.46
2022-08-07T07:46:54.205Z,20.31
2022-08-07T07:50:36.312Z,20.14
2022-08-07T07:52:53.591Z,20.35
2022-08-07T07:55:45.810Z,20.38
2022-08-07T07:58:44.462Z,20.37
2022-08-07T08:02:02.047Z,20.53
2022-08-07T08:04:42.031Z,20.47
2022-08-07T08:07:35.806Z,20.69
2022-08-07T08:10:37.584Z,20.62
2022-08-07T08:13:36.700Z,20.54
2022-08-07T08:16:40.111Z,20.78
2022-08-07T08:20:17.859Z,20.90
2022-08-07T08:23:01.917Z,21.10
2022-08-07T08:26:09.266Z,21.06
2022-08-07T08:28:58.340Z,21.03
2022-08-07T08:31:58.904Z,21.17
2022-08-07T08:34:57.289Z,21.41
2022-08-07T08:38:01.129Z,21.13
2022-08-07T08:41:31.504Z,21.39
2022-08-07T08:44:46.989Z,21.58
2022-08-07T08:47:52.247Z,21.59
2022-08-07T08:50:47.609Z,21.53
2022-08-07T08:53:47.332Z,21.85
2022-08-07T08:56:47.702Z,22.01
2022-08-07T08:59:50.941Z,22.18
2022-08-07T09:02:58.678Z,22.31
2022-08-07T09:05:57.725Z,22.51
2022-08-07T09:09:03.172Z,22.64
2022-08-07T09:12:31.379Z,22.73
2022-08-07T09:16:23.679Z,22.90
2022-08-07T09:19:00.435Z,22.78
2022-08-07T09:22:37.159Z,22.72
2022-08-07T09:25:58.966Z,22.58
2022-08-07T09:30:05.298Z,22.74
2022-08-07T09:32:17.086Z,22.95
2022-08-07T09:36:02.952Z,23.19
2022-08-07T09:38:58.541Z,23.28
2022-08-07T09:42:31.604Z,23.34
2022-08-07T09:47:24.422Z,23.23
2022-08-07T09:50:00.802Z,23.42
2022-08-07T09:52:33.538Z,23.67
2022-08-07T09:56:02.649Z,23.53
2022-08-07T09:58:53.196Z,23.43
2022-08-07T10:02:12.259Z,23.56
2022-08-07T10:05:12.370Z,23.66
2022-08-07T10:08:20.068Z,23.59
2022-08-07T10:11:59.686Z,23.65
2022-08-07T10:15:06.348Z,23.72
2022-08-07T10:18:21.048Z,23.75
2022-08-07T10:22:13.990Z,23.99
2022-08-07T10:24:47.337Z,24.04
2022-08-07T10:28:10.623Z,24.07
2022-08-07T10:31:31.530Z,24.10
2022-08-07T10:34:42.805Z,24.08
2022-08-07T10:38:20.861Z,24.19
2022-08-07T10:41:11.934Z,24.29
2022-08-07T10:44:38.451Z,24.56
2022-08-07T10:47:52.583Z,24.65
2022-08-07T10:50:49.821Z,24.60
2022-08-07T10:53:47.478Z,24.64
2022-08-07T10:56:54.290Z,24.67
2022-08-07T10:59:52.898Z,24.81
2022-08-07T11:03:01.212Z,24.96
2022-08-07T11:06:18.288Z,24.96
2022-08-07T11:10:07.276Z,24.90
2022-08-07T11:12:35.488Z,25.18
2022-08-07T11:15:31.647Z,24.97
2022-08-07T11:18:24.950Z,25.19
2022-08-07T11:21:35.016Z,25.45
2022-08-07T11:24:39.403Z,25.41
2022-08-07T11:28:04.327Z,25.17
2022-08-07T11:31:08.848Z,25.20
2022-08-07T11:34:03.125Z,25.27
2022-08-07T11:37:16.931Z,25.43
2022-08-07T11:40:27.695Z,25.61
2022-08-07T11:43:54.249Z,25.51
2022-08-07T11:47:18.661Z,25.73
2022-08-07T11:50:32.437Z,25.54
2022-08-07T11:54:00.724Z,25.58
2022-08-07T11:57:20.594Z,25.48
2022-08-07T12:01:00.249Z,25.50
2022-08-07T12:03:57.494Z,25.84
2022-08-07T12:06:55.422Z,25.70
2022-08-07T12:10:05.855Z,25.87
2022-08-07T12:13:17.145Z,26.11
2022-08-07T12:16:30.667Z,26.04
2022-08-07T12:19:35.956Z,25.99
2022-08-07T12:23:14.514Z,26.22
2022-08-07T12:26:23.267Z,26.41
2022-08-07T12:29:38.219Z,26.54
2022-08-07T12:32:44.834Z,26.67
2022-08-07T12:35:36.463Z,26.80
2022-08-07T12:38:36.948Z,26.81
2022-08-07T12:41:49.343Z,26.81
2022-08-07T12:44:40.616Z,26.93
2022-08-07T12:47:49.560Z,27.01
2022-08-07T12:50:48.958Z,27.15
2022-08-07T12:54:38.646Z,27.20
2022-08-07T12:57:24.887Z,26.90
2022-08-07T13:00:21.047Z,26.71
2022-08-07T13:03:59.124Z,26.86
2022-08-07T13:08:11.613Z,26.87
2022-08-07T13:10:52.992Z,27.33
2022-08-07T13:14:17.949Z,27.29
2022-08-07T13:17:18.350Z,27.30
2022-08-07T13:20:40.150Z,27.21
2022-08-07T13:24:01.624Z,27.21
2022-08-07T13:27:00.390Z,27.13
2022-08-07T13:29:57.960Z,27.15
2022-08-07T13:33:04.944Z,27.20
2022-08-07T13:36:17.519Z,27.18
2022-08-07T13:39:49.258Z,27.44
2022-08-07T13:42:25.668Z,27.33
2022-08-07T13:46:11.416Z,27.28
2022-08-07T13:48:33.816Z,27.54
2022-08-07T13:51:27.977Z,27.38
2022-08-07T13:54:33.858Z,27.43
2022-08-07T13:57:27.369Z,27.31
2022-08-07T14:00:35.746Z,27.48
2022-08-07T14:04:05.430Z,27.43
2022-08-07T14:06:50.324Z,27.60
2022-08-07T14:10:12.280Z,27.41
2022-08-07T14:13:03.736Z,27.31
2022-08-07T14:16:06.159Z,27.10
2022-08-07T14:19:04.682Z,27.21
2022-08-07T14:22:02.345Z,27.31
2022-08-07T14:25:08.240Z,27.36
2022-08-07T14:28:10.832Z,27.60
2022-08-07T14:31:00.536Z,27.79
2022-08-07T14:33:51.043Z,27.53
2022-08-07T14:36:38.863Z,27.20
2022-08-07T14:40:16.078Z,27.65
2022-08-07T14:42:35.548Z,27.16
2022-08-07T14:45:49.618Z,27.25
2022-08-07T14:48:40.357Z,27.37
2022-08-07T14:52:03.027Z,27.28
2022-08-07T14:57:58.350Z,27.08
2022-08-07T15:00:52.983Z,26.84
2022-08-07T15:03:52.575Z,26.91
2022-08-07T15:06:40.913Z,26.74
2022-08-07T15:09:59.120Z,26.63
2022-08-07T15:12:54.669Z,26.79
2022-08-07T15:15:52.438Z,26.74
2022-08-07T15:18:51.688Z,26.80
2022-08-07T15:22:04.324Z,26.93
2022-08-07T15:25:14.602Z,26.88
2022-08-07T15:28:32.859Z,26.83
2022-08-07T15:34:20.644Z,26.53
2022-08-07T15:37:15.895Z,26.48
2022-08-07T15:40:34.134Z,26.61
2022-08-07T15:43:53.705Z,26.79
2022-08-07T15:46:38.596Z,26.65
2022-08-07T15:52:44.848Z,26.67
2022-08-07T15:55:53.893Z,26.59
2022-08-07T15:58:54.994Z,26.64
2022-08-07T16:02:01.738Z,26.68
2022-08-07T16:04:54.791Z,26.62
2022-08-07T16:08:32.849Z,26.54
2022-08-07T16:11:28.680Z,26.61
2022-08-07T16:14:20.069Z,26.60
2022-08-07T16:18:00.827Z,26.43
2022-08-07T16:20:34.248Z,26.30
2022-08-07T16:23:54.001Z,26.37
2022-08-07T16:26:58.761Z,26.41
2022-08-07T16:30:10.125Z,26.22
2022-08-07T16:34:02.437Z,26.15
2022-08-07T16:37:01.682Z,26.09
2022-08-07T16:40:28.122Z,26.20
2022-08-07T16:44:04.128Z,26.23
2022-08-07T16:47:18.697Z,26.19
2022-08-07T16:50:35.492Z,26.00
2022-08-07T16:54:09.026Z,26.31
2022-08-07T16:58:00.917Z,26.31
2022-08-07T17:00:40.955Z,26.30
2022-08-07T17:03:58.473Z,26.24
2022-08-07T17:07:03.219Z,26.05
2022-08-07T17:10:06.974Z,26.13
2022-08-07T17:13:24.235Z,26.31
2022-08-07T17:16:43.893Z,26.25
2022-08-07T17:20:03.155Z,26.15
2022-08-07T17:23:15.422Z,26.09
2022-08-07T17:26:23.451Z,25.88
2022-08-07T17:30:18.420Z,25.95
2022-08-07T17:32:51.977Z,26.04
2022-08-07T17:35:55.905Z,25.92
2022-08-07T17:38:55.343Z,25.62
2022-08-07T17:42:06.973Z,25.89
2022-08-07T17:44:58.398Z,25.68
2022-08-07T17:47:58.022Z,25.51
2022-08-07T17:50:46.947Z,25.81
2022-08-07T17:54:00.188Z,25.72
2022-08-07T17:57:18.773Z,25.47
2022-08-07T18:00:11.387Z,25.52
2022-08-07T18:03:25.514Z,25.32
2022-08-07T18:06:36.576Z,25.20
2022-08-07T18:10:05.010Z,25.28
2022-08-07T18:12:50.799Z,25.16
2022-08-07T18:16:09.000Z,25.14
2022-08-07T18:21:07.604Z,25.04
2022-08-07T18:22:26.427Z,24.81
2022-08-07T18:25:39.414Z,24.65
2022-08-07T18:28:58.385Z,24.80
2022-08-07T18:32:07.835Z,24.54
2022-08-07T18:35:17.667Z,24.48
2022-08-07T18:38:59.167Z,24.50
2022-08-07T18:41:22.656Z,24.27
2022-08-07T18:48:08.086Z,23.84
2022-08-07T18:52:25.531Z,23.80
2022-08-07T18:54:50.970Z,23.07
2022-08-07T18:57:58.731Z,23.57
2022-08-07T19:00:56.588Z,23.48
2022-08-07T19:04:35.832Z,23.38
2022-08-07T19:07:36.218Z,23.30
2022-08-07T19:10:51.315Z,23.04
2022-08-07T19:13:44.878Z,23.07
2022-08-07T19:17:00.719Z,23.00
2022-08-07T19:20:07.010Z,22.95
2022-08-07T19:23:59.200Z,22.78
2022-08-07T19:27:09.373Z,22.73
2022-08-07T19:31:04.083Z,22.39
2022-08-07T19:33:15.140Z,22.40
2022-08-07T19:36:04.002Z,22.27
2022-08-07T19:38:54.359Z,22.05
2022-08-07T19:41:44.605Z,22.03
2022-08-07T19:44:55.425Z,21.90
2022-08-07T19:47:47.883Z,21.63
2022-08-07T19:50:44.537Z,21.20
2022-08-07T19:54:33.819Z,21.07
2022-08-07T19:57:56.779Z,20.71
2022-08-07T20:00:08.933Z,20.54
2022-08-07T20:03:02.867Z,20.37
2022-08-07T20:06:00.102Z,20.13
2022-08-07T20:08:51.548Z,19.78
2022-08-07T20:12:23.006Z,19.60
2022-08-07T20:14:53.948Z,19.50
2022-08-07T20:17:46.649Z,19.57
2022-08-07T20:20:50.225Z,19.46
2022-08-07T20:23:51.987Z,19.12
2022-08-07T20:26:50.213Z,19.14
2022-08-07T20:29:47.900Z,19.09
2022-08-07T20:32:42.972Z,18.96
2022-08-07T20:35:52.012Z,18.87
2022-08-07T20:38:59.408Z,18.86
2022-08-07T20:41:50.657Z,18.76
2022-08-07T20:44:49.356Z,18.60
2022-08-07T20:47:56.854Z,18.50
2022-08-07T20:50:45.333Z,18.43
2022-08-07T20:54:04.784Z,18.36
2022-08-07T20:56:49.864Z,18.17
2022-08-07T21:00:07.938Z,17.76
2022-08-07T21:02:58.540Z,17.77
2022-08-07T21:06:21.594Z,17.69
2022-08-07T21:09:17.319Z,17.69
2022-08-07T21:12:15.150Z,17.43
2022-08-07T21:15:06.950Z,17.37
2022-08-07T21:18:02.636Z,17.36
2022-08-07T21:21:00.016Z,17.26
2022-08-07T21:24:05.905Z,17.22
2022-08-07T21:27:00.879Z,17.24
2022-08-07T21:29:54.877Z,17.04
2022-08-07T21:33:07.588Z,16.75
2022-08-07T21:36:05.446Z,16.88
2022-08-07T21:39:46.217Z,16.79
2022-08-07T21:42:45.984Z,16.66
2022-08-07T21:46:08.651Z,16.54
2022-08-07T21:49:17.743Z,16.44
2022-08-07T21:52:34.249Z,16.45
2022-08-07T21:55:29.859Z,16.29
2022-08-07T21:58:32.808Z,16.35
2022-08-07T22:02:04.380Z,16.24
2022-08-07T22:04:36.962Z,16.22
2022-08-07T22:07:31.835Z,15.98
2022-08-07T22:10:42.378Z,16.05
2022-08-07T22:13:52.190Z,16.02
2022-08-07T22:16:46.946Z,15.82
2022-08-07T22:19:57.250Z,15.79
2022-08-07T22:22:48.270Z,15.74
2022-08-07T22:26:06.030Z,15.75
2022-08-07T22:29:17.336Z,15.65
2022-08-07T22:32:20.726Z,15.54
2022-08-07T22:35:07.829Z,15.26
2022-08-07T22:38:25.594Z,15.37
2022-08-07T22:42:03.076Z,15.23
2022-08-07T22:44:59.205Z,15.20
2022-08-07T22:47:58.360Z,15.27
2022-08-07T22:51:07.088Z,15.13
2022-08-07T22:54:12.041Z,15.14
2022-08-07T22:57:25.754Z,15.03
2022-08-07T23:00:28.777Z,14.91
2022-08-07T23:03:15.672Z,14.98
2022-08-07T23:06:50.022Z,14.83
2022-08-07T23:10:06.295Z,14.74
2022-08-07T23:13:05.792Z,14.61
2022-08-07T23:16:44.389Z,14.38
2022-08-07T23:19:51.954Z,14.24
2022-08-07T23:23:02.315Z,14.50
2022-08-07T23:26:25.276Z,14.45
2022-08-07T23:30:35.958Z,14.35
2022-08-07T23:34:23.415Z,14.04
2022-08-07T23:36:33.494Z,14.15
2022-08-07T23:40:00.966Z,13.97
2022-08-07T23:43:16.929Z,14.06
2022-08-07T23:46:28.797Z,14.14
2022-08-07T23:49:24.096Z,14.13
2022-08-07T23:53:06.777Z,14.26
2022-08-07T23:56:07.510Z,14.04
